createdAt,value
2022-10-29T00:00:52.998Z,10.20
2022-10-29T00:03:20.431Z,11.65
2022-10-29T00:06:16.586Z,13.05
2022-10-29T00:08:43.372Z,12.10
2022-10-29T00:11:13.536Z,11.15
2022-10-29T00:13:40.678Z,9.10
2022-10-29T00:16:16.635Z,10.38
2022-10-29T00:18:44.017Z,16.73
2022-10-29T00:21:13.716Z,14.88
2022-10-29T00:23:40.535Z,11.73
2022-10-29T00:26:07.457Z,10.07
2022-10-29T00:28:34.493Z,12.25
2022-10-29T00:31:12.318Z,9.82
2022-10-29T00:33:39.072Z,10.63
2022-10-29T00:36:11.843Z,10.15
2022-10-29T00:38:38.753Z,12.93
2022-10-29T00:41:07.021Z,13.32
2022-10-29T00:43:35.354Z,16.60
2022-10-29T00:46:08.422Z,11.60
2022-10-29T00:48:36.659Z,14.27
2022-10-29T00:51:05.695Z,14.35
2022-10-29T00:53:34.989Z,13.93
2022-10-29T00:56:02.122Z,13.10
2022-10-29T00:58:29.066Z,19.80
2022-10-29T01:00:55.730Z,18.23
2022-10-29T01:03:22.452Z,15.32
2022-10-29T01:05:49.512Z,10.38
2022-10-29T01:08:16.762Z,11.35
2022-10-29T01:11:05.260Z,16.23
2022-10-29T01:13:57.796Z,11.88
2022-10-29T01:16:24.370Z,14.15
2022-10-29T01:19:09.892Z,12.38
2022-10-29T01:21:36.533Z,15.77
2022-10-29T01:24:25.780Z,14.63
2022-10-29T01:27:10.748Z,11.82
2022-10-29T01:29:51.151Z,12.55
2022-10-29T01:32:47.046Z,10.63
2022-10-29T01:35:34.536Z,8.68
2022-10-29T01:38:29.100Z,11.90
2022-10-29T01:41:03.753Z,12.27
2022-10-29T01:43:55.272Z,12.98
2022-10-29T01:46:23.135Z,13.73
2022-10-29T01:48:52.762Z,17.30
2022-10-29T01:51:22.626Z,16.08
2022-10-29T01:53:49.667Z,15.43
2022-10-29T01:56:16.477Z,13.25
2022-10-29T01:58:47.920Z,12.88
2022-10-29T02:01:32.834Z,10.98
2022-10-29T02:04:18.297Z,11.90
2022-10-29T02:07:12.279Z,18.45
2022-10-29T02:09:46.201Z,11.52
2022-10-29T02:12:31.681Z,8.77
2022-10-29T02:15:03.650Z,12.85
2022-10-29T02:17:34.151Z,10.48
2022-10-29T02:20:09.528Z,13.90
2022-10-29T02:22:36.185Z,13.63
2022-10-29T02:25:03.338Z,14.18
2022-10-29T02:27:30.038Z,19.33
2022-10-29T02:29:56.690Z,9.52
2022-10-29T02:32:23.459Z,8.07
2022-10-29T02:34:50.207Z,10.07
2022-10-29T02:37:16.852Z,11.57
2022-10-29T02:39:43.523Z,15.57
2022-10-29T02:42:10.485Z,13.75
2022-10-29T02:44:37.145Z,14.07
2022-10-29T02:47:03.841Z,15.95
2022-10-29T02:49:30.508Z,15.85
2022-10-29T02:51:57.153Z,13.25
2022-10-29T02:54:23.892Z,17.95
2022-10-29T02:56:50.585Z,13.52
2022-10-29T02:59:17.239Z,14.25
2022-10-29T03:01:44.046Z,12.70
2022-10-29T03:04:11.751Z,13.50
2022-10-29T03:06:38.435Z,12.07
2022-10-29T03:09:05.456Z,12.32
2022-10-29T03:11:33.103Z,21.73
2022-10-29T03:13:59.835Z,13.43
2022-10-29T03:16:26.566Z,11.95
2022-10-29T03:18:53.231Z,12.05
2022-10-29T03:21:19.936Z,12.05
2022-10-29T03:23:46.615Z,12.13
2022-10-29T03:26:13.294Z,16.92
2022-10-29T03:28:40.133Z,12.45
2022-10-29T03:31:06.869Z,15.40
2022-10-29T03:33:33.538Z,17.85
2022-10-29T03:36:01.801Z,14.07
2022-10-29T03:38:28.701Z,14.93
2022-10-29T03:40:55.827Z,12.23
2022-10-29T03:43:22.509Z,10.55
2022-10-29T03:45:57.068Z,11.98
2022-10-29T03:48:25.369Z,11.05
2022-10-29T03:51:02.747Z,12.57
2022-10-29T03:53:29.676Z,15.07
2022-10-29T03:55:56.865Z,12.30
2022-10-29T03:58:24.569Z,9.60
2022-10-29T04:00:55.639Z,10.20
2022-10-29T04:03:22.339Z,13.82
2022-10-29T04:05:49.031Z,13.38
2022-10-29T04:08:15.711Z,14.13
2022-10-29T04:10:47.009Z,12.05
2022-10-29T04:13:14.456Z,12.43
2022-10-29T04:15:41.250Z,10.77
2022-10-29T04:18:08.147Z,16.50
2022-10-29T04:20:59.755Z,13.93
2022-10-29T04:28:55.477Z,14.35
2022-10-29T04:31:22.168Z,12.60
2022-10-29T04:33:48.812Z,13.48
2022-10-29T04:36:15.470Z,12.43
2022-10-29T04:38:42.166Z,18.77
2022-10-29T04:41:08.869Z,11.90
2022-10-29T04:43:35.591Z,10.75
2022-10-29T04:46:02.915Z,12.05
2022-10-29T04:48:29.973Z,11.60
2022-10-29T04:50:56.632Z,10.15
2022-10-29T04:53:23.367Z,13.25
2022-10-29T04:55:50.040Z,16.60
2022-10-29T04:58:18.783Z,12.70
2022-10-29T05:00:46.042Z,12.05
2022-10-29T05:03:13.266Z,12.18
2022-10-29T05:05:40.409Z,12.00
2022-10-29T05:08:07.482Z,10.45
2022-10-29T05:10:35.771Z,13.35
2022-10-29T05:13:05.668Z,16.08
2022-10-29T05:15:32.328Z,10.18
2022-10-29T05:17:59.137Z,12.88
2022-10-29T05:20:26.742Z,12.90
2022-10-29T05:23:07.847Z,15.15
2022-10-29T05:25:36.433Z,11.27
2022-10-29T05:28:05.372Z,13.20
2022-10-29T05:30:32.713Z,16.08
2022-10-29T05:32:59.491Z,12.50
2022-10-29T05:35:26.813Z,10.88
2022-10-29T05:37:54.221Z,14.45
2022-10-29T05:40:21.809Z,13.30
2022-10-29T05:42:48.631Z,18.92
2022-10-29T05:45:15.486Z,18.30
2022-10-29T05:47:42.523Z,11.80
2022-10-29T05:50:09.737Z,14.57
2022-10-29T05:52:36.376Z,12.43
2022-10-29T05:55:03.134Z,10.65
2022-10-29T05:57:29.802Z,11.50
2022-10-29T05:59:56.555Z,12.57
2022-10-29T06:02:23.343Z,13.23
2022-10-29T06:04:50.129Z,13.68
2022-10-29T06:07:16.750Z,11.38
2022-10-29T06:09:43.429Z,8.77
2022-10-29T06:12:10.067Z,11.38
2022-10-29T06:14:36.744Z,11.68
2022-10-29T06:17:03.398Z,10.75
2022-10-29T06:19:30.252Z,9.73
2022-10-29T06:22:00.328Z,11.05
2022-10-29T06:24:27.636Z,12.20
2022-10-29T06:26:54.710Z,11.00
2022-10-29T06:29:21.430Z,13.10
2022-10-29T06:31:48.080Z,12.82
2022-10-29T06:34:15.034Z,12.20
2022-10-29T06:36:41.862Z,12.43
2022-10-29T06:39:08.649Z,13.63
2022-10-29T06:41:35.363Z,12.40
2022-10-29T06:44:02.093Z,7.38
2022-10-29T06:46:28.793Z,12.13
2022-10-29T06:48:55.461Z,9.55
2022-10-29T06:53:50.107Z,12.88
2022-10-29T06:56:16.844Z,12.65
2022-10-29T06:58:43.617Z,16.55
2022-10-29T07:01:10.497Z,16.23
2022-10-29T07:03:37.279Z,13.63
2022-10-29T07:06:04.278Z,10.25
2022-10-29T07:08:31.003Z,13.85
2022-10-29T07:10:57.934Z,13.15
2022-10-29T07:13:24.702Z,12.18
2022-10-29T07:15:51.517Z,12.68
2022-10-29T07:18:18.226Z,13.63
2022-10-29T07:20:45.552Z,11.32
2022-10-29T07:23:13.281Z,14.18
2022-10-29T07:25:41.004Z,11.77
2022-10-29T07:28:13.732Z,13.27
2022-10-29T07:30:40.937Z,14.20
2022-10-29T07:33:07.636Z,12.50
2022-10-29T07:35:35.267Z,12.15
2022-10-29T07:38:08.764Z,15.15
2022-10-29T07:40:41.145Z,13.13
2022-10-29T07:43:09.212Z,8.40
2022-10-29T07:45:35.922Z,19.58
2022-10-29T07:48:04.756Z,11.50
2022-10-29T07:50:32.086Z,8.95
2022-10-29T07:53:02.739Z,11.82
2022-10-29T07:58:02.517Z,11.60
2022-10-29T08:00:30.481Z,14.88
2022-10-29T08:02:57.563Z,14.05
2022-10-29T08:05:25.545Z,9.82
2022-10-29T08:07:56.103Z,11.48
2022-10-29T08:10:26.534Z,13.18
2022-10-29T08:12:55.581Z,12.45
2022-10-29T08:15:23.331Z,11.80
2022-10-29T08:17:50.465Z,12.82
2022-10-29T08:20:17.691Z,15.70
2022-10-29T08:22:44.443Z,10.05
2022-10-29T08:25:12.173Z,9.60
2022-10-29T08:27:39.135Z,14.55
2022-10-29T08:30:10.881Z,14.70
2022-10-29T08:32:37.607Z,17.48
2022-10-29T08:35:06.349Z,12.43
2022-10-29T08:37:33.006Z,10.57
2022-10-29T08:39:59.653Z,16.40
2022-10-29T08:42:41.732Z,14.75
2022-10-29T08:45:25.087Z,13.48
2022-10-29T08:48:22.744Z,13.23
2022-10-29T08:50:53.870Z,12.32
2022-10-29T08:53:32.840Z,13.88
2022-10-29T08:56:00.438Z,13.55
2022-10-29T08:58:37.618Z,15.90
2022-10-29T09:01:10.534Z,10.20
2022-10-29T09:03:37.566Z,12.40
2022-10-29T09:06:16.532Z,11.57
2022-10-29T09:08:52.345Z,11.77
2022-10-29T09:11:56.767Z,11.70
2022-10-29T09:14:42.210Z,11.30
2022-10-29T09:17:37.358Z,12.27
2022-10-29T09:20:38.036Z,13.35
2022-10-29T09:23:29.767Z,15.07
2022-10-29T09:26:03.334Z,13.73
2022-10-29T09:28:48.613Z,12.55
2022-10-29T09:31:38.093Z,10.13
2022-10-29T09:34:12.247Z,13.93
2022-10-29T09:36:39.288Z,9.50
2022-10-29T09:39:14.775Z,14.82
2022-10-29T09:41:41.600Z,11.57
2022-10-29T09:44:20.627Z,9.65
2022-10-29T09:47:08.605Z,9.30
2022-10-29T09:49:48.762Z,10.18
2022-10-29T09:52:23.961Z,11.45
2022-10-29T09:54:52.024Z,11.18
2022-10-29T09:57:23.963Z,11.50
2022-10-29T09:59:55.926Z,11.32
2022-10-29T10:02:39.112Z,9.98
2022-10-29T10:05:29.513Z,12.15
2022-10-29T10:08:11.131Z,12.90
2022-10-29T10:10:51.357Z,12.63
2022-10-29T10:13:19.729Z,14.68
2022-10-29T10:15:53.365Z,10.93
2022-10-29T10:18:28.665Z,9.75
2022-10-29T10:21:09.411Z,11.25
2022-10-29T10:23:42.513Z,10.55
2022-10-29T10:26:44.272Z,15.98
2022-10-29T10:29:18.333Z,10.57
2022-10-29T10:31:57.281Z,10.63
2022-10-29T10:34:36.615Z,10.75
2022-10-29T10:37:05.847Z,13.18
2022-10-29T10:39:37.208Z,14.40
2022-10-29T10:42:05.873Z,16.98
2022-10-29T10:44:32.911Z,7.68
2022-10-29T10:47:04.804Z,12.48
2022-10-29T10:49:34.277Z,9.38
2022-10-29T10:52:04.475Z,8.30
2022-10-29T10:54:42.187Z,10.15
2022-10-29T10:57:12.046Z,11.18
2022-10-29T10:59:51.671Z,15.00
2022-10-29T11:02:27.487Z,15.75
2022-10-29T11:05:00.915Z,10.02
2022-10-29T11:07:34.396Z,13.02
2022-10-29T11:10:03.876Z,11.65
2022-10-29T11:12:32.692Z,14.25
2022-10-29T11:15:18.587Z,10.60
2022-10-29T11:17:56.804Z,11.20
2022-10-29T11:20:33.831Z,11.80
2022-10-29T11:23:34.376Z,9.50
2022-10-29T11:26:24.401Z,12.27
2022-10-29T11:28:57.381Z,18.98
2022-10-29T11:31:36.646Z,12.52
2022-10-29T11:34:10.574Z,8.85
2022-10-29T11:36:44.913Z,10.00
2022-10-29T11:39:36.171Z,8.43
2022-10-29T11:42:02.902Z,12.43
2022-10-29T11:44:32.975Z,16.40
2022-10-29T11:47:09.558Z,9.60
2022-10-29T11:49:45.321Z,11.98
2022-10-29T11:52:20.534Z,16.15
2022-10-29T11:54:53.717Z,9.88
2022-10-29T11:57:31.841Z,12.13
2022-10-29T12:00:07.519Z,17.33
2022-10-29T12:02:43.239Z,9.23
2022-10-29T12:05:23.502Z,17.75
2022-10-29T12:08:08.380Z,13.85
2022-10-29T12:11:00.175Z,12.75
2022-10-29T12:13:51.768Z,13.68
2022-10-29T12:16:56.590Z,19.05
2022-10-29T12:19:29.435Z,15.00
2022-10-29T12:22:13.524Z,10.20
2022-10-29T12:24:57.877Z,11.57
2022-10-29T12:27:30.787Z,13.40
2022-10-29T12:30:01.992Z,16.17
2022-10-29T12:32:38.212Z,10.45
2022-10-29T12:35:31.270Z,10.68
2022-10-29T12:38:39.615Z,10.40
2022-10-29T12:41:13.722Z,13.77
2022-10-29T12:43:41.903Z,14.40
2022-10-29T12:46:31.685Z,14.32
2022-10-29T12:49:29.300Z,11.55
2022-10-29T12:51:59.276Z,12.73
2022-10-29T12:54:26.117Z,11.68
2022-10-29T12:56:53.038Z,14.80
2022-10-29T12:59:36.833Z,16.90
2022-10-29T13:02:19.725Z,13.13
2022-10-29T13:05:34.226Z,12.23
2022-10-29T13:08:04.006Z,10.93
2022-10-29T13:10:33.946Z,15.10
2022-10-29T13:13:18.914Z,10.50
2022-10-29T13:16:01.577Z,8.70
2022-10-29T13:18:29.307Z,12.52
2022-10-29T13:20:56.206Z,14.15
2022-10-29T13:23:22.839Z,11.45
2022-10-29T13:25:54.031Z,17.27
2022-10-29T13:28:20.860Z,13.35
2022-10-29T13:30:49.480Z,12.90
2022-10-29T13:33:19.071Z,9.55
2022-10-29T13:35:54.601Z,13.13
2022-10-29T13:38:58.023Z,9.40
2022-10-29T13:41:40.441Z,13.48
2022-10-29T13:44:22.866Z,10.27
2022-10-29T13:46:56.625Z,14.50
2022-10-29T13:49:31.087Z,11.38
2022-10-29T13:52:03.585Z,13.68
2022-10-29T13:54:47.181Z,13.88
2022-10-29T13:57:13.816Z,12.00
2022-10-29T13:59:50.133Z,8.68
2022-10-29T14:02:26.531Z,15.00
2022-10-29T14:04:56.926Z,12.40
2022-10-29T14:07:30.440Z,10.30
2022-10-29T14:10:02.025Z,12.30
2022-10-29T14:12:31.359Z,13.07
2022-10-29T14:15:11.063Z,13.20
2022-10-29T14:17:37.774Z,12.38
2022-10-29T14:20:04.678Z,20.98
2022-10-29T14:22:39.177Z,15.82
2022-10-29T14:25:24.759Z,13.27
2022-10-29T14:28:32.005Z,18.88
2022-10-29T14:31:00.377Z,12.38
2022-10-29T14:33:29.359Z,14.13
2022-10-29T14:36:11.746Z,13.77
2022-10-29T14:38:51.446Z,14.77
2022-10-29T14:41:19.061Z,11.05
2022-10-29T14:43:52.195Z,12.70
2022-10-29T14:46:30.115Z,17.20
2022-10-29T14:49:20.968Z,17.83
2022-10-29T14:51:50.842Z,13.90
2022-10-29T14:54:22.340Z,14.05
2022-10-29T14:56:51.862Z,17.40
2022-10-29T14:59:21.688Z,15.07
2022-10-29T15:01:57.132Z,13.82
2022-10-29T15:04:31.758Z,11.27
2022-10-29T15:07:21.835Z,15.57
2022-10-29T15:09:49.497Z,12.93
2022-10-29T15:12:24.612Z,12.00
2022-10-29T15:14:54.517Z,14.32
2022-10-29T15:17:29.554Z,12.52
2022-10-29T15:20:05.340Z,12.18
2022-10-29T15:22:36.144Z,13.63
2022-10-29T15:25:05.540Z,13.80
2022-10-29T15:27:32.444Z,13.40
2022-10-29T15:29:59.763Z,11.25
2022-10-29T15:32:30.489Z,11.07
2022-10-29T15:34:59.517Z,14.18
2022-10-29T15:37:40.922Z,13.55
2022-10-29T15:40:26.148Z,14.77
2022-10-29T15:42:53.979Z,13.63
2022-10-29T15:45:23.644Z,19.02
2022-10-29T15:48:05.880Z,13.02
2022-10-29T15:50:38.590Z,12.48
2022-10-29T15:53:07.337Z,13.55
2022-10-29T15:55:35.527Z,16.55
2022-10-29T15:58:04.679Z,18.27
2022-10-29T16:00:32.081Z,15.52
2022-10-29T16:03:13.957Z,13.57
2022-10-29T16:05:42.191Z,13.43
2022-10-29T16:08:17.900Z,19.08
2022-10-29T16:10:44.679Z,9.35
2022-10-29T16:13:11.746Z,12.60
2022-10-29T16:15:41.599Z,13.60
2022-10-29T16:18:10.925Z,13.50
2022-10-29T16:20:37.673Z,16.92
2022-10-29T16:23:04.385Z,11.05
2022-10-29T16:25:31.182Z,17.45
2022-10-29T16:27:58.256Z,13.30
2022-10-29T16:30:25.310Z,15.85
2022-10-29T16:32:52.722Z,18.67
2022-10-29T16:35:24.280Z,18.42
2022-10-29T16:37:51.889Z,19.30
2022-10-29T16:40:20.493Z,20.30
2022-10-29T16:42:47.754Z,14.00
2022-10-29T16:45:17.087Z,15.25
2022-10-29T16:47:43.799Z,14.60
2022-10-29T16:50:16.439Z,18.70
2022-10-29T16:52:43.453Z,12.82
2022-10-29T16:55:10.952Z,16.75
2022-10-29T16:57:37.932Z,13.43
2022-10-29T17:00:06.454Z,15.82
2022-10-29T17:02:33.122Z,13.35
2022-10-29T17:04:59.809Z,15.27
2022-10-29T17:07:26.548Z,15.80
2022-10-29T17:09:53.243Z,17.08
2022-10-29T17:12:19.926Z,15.57
2022-10-29T17:14:46.637Z,18.23
2022-10-29T17:17:13.410Z,18.52
2022-10-29T17:19:40.076Z,17.48
2022-10-29T17:22:10.692Z,14.00
2022-10-29T17:24:37.503Z,14.30
2022-10-29T17:27:04.271Z,12.80
2022-10-29T17:29:36.154Z,16.67
2022-10-29T17:34:30.470Z,17.15
2022-10-29T17:36:57.184Z,12.68
2022-10-29T17:39:23.861Z,13.35
2022-10-29T17:41:51.105Z,18.85
2022-10-29T17:44:17.891Z,15.20
2022-10-29T17:46:44.778Z,13.15
2022-10-29T17:49:11.515Z,20.48
2022-10-29T17:51:38.200Z,16.77
2022-10-29T17:54:04.953Z,24.65
2022-10-29T17:56:32.179Z,18.08
2022-10-29T17:58:58.857Z,18.52
2022-10-29T18:01:25.707Z,17.98
2022-10-29T18:03:52.488Z,22.45
2022-10-29T18:06:19.472Z,22.35
2022-10-29T18:08:46.152Z,17.25
2022-10-29T18:11:18.931Z,17.08
2022-10-29T18:13:46.781Z,20.67
2022-10-29T18:16:19.054Z,25.23
2022-10-29T18:19:00.927Z,22.90
2022-10-29T18:21:29.509Z,22.20
2022-10-29T18:23:56.326Z,23.02
2022-10-29T18:26:31.268Z,24.70
2022-10-29T18:28:59.383Z,23.23
2022-10-29T18:31:30.015Z,21.45
2022-10-29T18:33:57.707Z,29.77
2022-10-29T18:36:24.494Z,28.98
2022-10-29T18:38:52.395Z,22.83
2022-10-29T18:41:19.184Z,24.23
2022-10-29T18:43:46.141Z,30.10
2022-10-29T18:46:13.359Z,24.38
2022-10-29T18:48:41.833Z,27.83
2022-10-29T18:51:11.474Z,22.10
2022-10-29T18:53:38.990Z,26.60
2022-10-29T18:56:16.618Z,21.30
2022-10-29T18:58:43.673Z,24.83
2022-10-29T19:01:24.608Z,23.10
2022-10-29T19:03:53.175Z,21.30
2022-10-29T19:06:20.794Z,23.70
2022-10-29T19:08:47.646Z,20.30
2022-10-29T19:11:17.230Z,21.60
2022-10-29T19:13:44.026Z,25.05
2022-10-29T19:16:12.742Z,25.63
2022-10-29T19:18:40.824Z,21.10
2022-10-29T19:21:08.350Z,22.88
2022-10-29T19:23:35.168Z,23.00
2022-10-29T19:26:09.233Z,24.13
2022-10-29T19:28:36.603Z,23.40
2022-10-29T19:31:11.783Z,26.45
2022-10-29T19:33:38.923Z,29.33
2022-10-29T19:36:07.154Z,25.10
2022-10-29T19:38:34.559Z,22.42
2022-10-29T19:41:01.281Z,23.42
2022-10-29T19:43:31.375Z,21.23
2022-10-29T19:45:58.397Z,21.80
2022-10-29T19:48:25.530Z,20.73
2022-10-29T19:50:56.609Z,21.08
2022-10-29T19:53:23.950Z,20.80
2022-10-29T19:55:51.122Z,23.52
2022-10-29T19:58:18.524Z,15.70
2022-10-29T20:00:45.406Z,18.02
2022-10-29T20:03:13.283Z,22.75
2022-10-29T20:05:40.529Z,20.75
2022-10-29T20:08:11.367Z,19.05
2022-10-29T20:10:41.623Z,21.45
2022-10-29T20:13:08.324Z,21.25
2022-10-29T20:15:35.088Z,19.83
2022-10-29T20:18:01.778Z,17.52
2022-10-29T20:20:28.533Z,22.15
2022-10-29T20:22:55.665Z,18.98
2022-10-29T20:25:24.050Z,25.20
2022-10-29T20:27:50.956Z,20.73
2022-10-29T20:30:17.933Z,21.63
2022-10-29T20:32:44.623Z,17.40
2022-10-29T20:35:11.318Z,19.15
2022-10-29T20:37:38.062Z,18.85
2022-10-29T20:40:05.515Z,22.33
2022-10-29T20:42:32.187Z,20.02
2022-10-29T20:44:58.892Z,25.80
2022-10-29T20:47:25.568Z,19.15
2022-10-29T20:49:52.248Z,22.50
2022-10-29T20:52:18.960Z,20.58
2022-10-29T20:54:45.724Z,27.17
2022-10-29T20:57:12.392Z,23.00
2022-10-29T20:59:39.173Z,22.15
2022-10-29T21:02:06.128Z,20.63
2022-10-29T21:04:33.095Z,21.95
2022-10-29T21:06:59.770Z,22.80
2022-10-29T21:09:27.411Z,20.55
2022-10-29T21:11:54.933Z,20.15
2022-10-29T21:14:23.548Z,24.02
2022-10-29T21:16:50.379Z,20.58
2022-10-29T21:19:17.045Z,23.80
2022-10-29T21:21:43.795Z,29.25
2022-10-29T21:24:10.468Z,24.48
2022-10-29T21:26:37.174Z,25.30
2022-10-29T21:29:03.885Z,24.85
2022-10-29T21:31:30.642Z,27.45
2022-10-29T21:33:57.330Z,26.48
2022-10-29T21:36:24.400Z,28.95
2022-10-29T21:38:51.204Z,25.17
2022-10-29T21:41:18.558Z,31.25
2022-10-29T21:43:45.283Z,31.42
2022-10-29T21:46:12.046Z,26.73
2022-10-29T21:48:38.756Z,31.23
2022-10-29T21:51:11.360Z,27.13
2022-10-29T21:53:38.409Z,31.33
2022-10-29T21:56:06.874Z,26.50
2022-10-29T21:58:33.884Z,29.98
2022-10-29T22:01:04.833Z,29.25
2022-10-29T22:03:33.538Z,30.60
2022-10-29T22:06:07.930Z,29.05
2022-10-29T22:08:35.268Z,31.48
2022-10-29T22:11:02.649Z,29.88
2022-10-29T22:13:29.951Z,28.00
2022-10-29T22:15:56.899Z,26.88
2022-10-29T22:18:25.460Z,30.25
2022-10-29T22:21:12.237Z,25.58
2022-10-29T22:23:45.602Z,28.17
2022-10-29T22:26:13.736Z,27.10
2022-10-29T22:28:40.443Z,25.50
2022-10-29T22:31:07.350Z,25.45
2022-10-29T22:33:35.311Z,24.25
2022-10-29T22:36:10.600Z,23.23
2022-10-29T22:38:37.889Z,23.13
2022-10-29T22:41:06.204Z,25.80
2022-10-29T22:43:33.146Z,24.17
2022-10-29T22:45:59.877Z,24.23
2022-10-29T22:48:26.539Z,23.27
2022-10-29T22:51:03.469Z,26.42
2022-10-29T22:53:30.472Z,23.65
2022-10-29T22:55:57.164Z,22.60
2022-10-29T22:58:24.034Z,21.63
2022-10-29T23:01:01.054Z,23.63
2022-10-29T23:03:27.837Z,21.95
2022-10-29T23:06:02.639Z,24.73
2022-10-29T23:08:30.180Z,27.95
2022-10-29T23:10:56.989Z,24.05
2022-10-29T23:13:23.725Z,28.20
2022-10-29T23:15:51.933Z,22.15
2022-10-29T23:18:19.137Z,19.63
2022-10-29T23:20:45.937Z,27.58
2022-10-29T23:23:13.472Z,23.45
2022-10-29T23:25:41.751Z,21.15
2022-10-29T23:28:09.238Z,25.33
2022-10-29T23:30:36.078Z,22.33
2022-10-29T23:33:02.776Z,24.35
2022-10-29T23:35:29.506Z,23.38
2022-10-29T23:37:56.561Z,25.98
2022-10-29T23:40:23.469Z,27.55
2022-10-29T23:42:50.258Z,26.02
2022-10-29T23:45:17.117Z,26.02
2022-10-29T23:47:43.819Z,24.08
2022-10-29T23:50:10.513Z,26.25
2022-10-29T23:52:37.200Z,26.98
2022-10-29T23:55:03.940Z,23.00
2022-10-29T23:57:30.658Z,28.45
2022-10-29T23:59:57.326Z,26.52
